createdAt,value
2018-08-09T00:00:51.553Z,0.30
2018-08-09T00:03:20.528Z,0.30
2018-08-09T00:05:49.432Z,0.40
2018-08-09T00:08:18.345Z,0.30
2018-08-09T00:10:47.248Z,0.30
2018-08-09T00:13:16.194Z,0.30
2018-08-09T00:15:45.096Z,0.40
2018-08-09T00:18:14.015Z,0.40
2018-08-09T00:20:42.903Z,0.30
2018-08-09T00:23:11.828Z,0.30
2018-08-09T00:25:40.844Z,0.50
2018-08-09T00:28:09.711Z,0.30
2018-08-09T00:30:38.684Z,0.30
2018-08-09T00:33:07.703Z,0.40
2018-08-09T00:35:36.634Z,0.40
2018-08-09T00:38:05.614Z,0.20
2018-08-09T00:40:34.632Z,0.50
2018-08-09T00:43:04.569Z,0.30
2018-08-09T00:45:33.618Z,0.20
2018-08-09T00:48:02.744Z,0.40
2018-08-09T00:50:31.647Z,0.30
2018-08-09T00:53:00.591Z,0.33
2018-08-09T00:55:29.564Z,0.30
2018-08-09T00:57:58.587Z,0.30
2018-08-09T01:00:27.550Z,0.40
2018-08-09T01:02:56.543Z,0.30
2018-08-09T01:05:25.511Z,0.50
2018-08-09T01:07:54.563Z,0.40
2018-08-09T01:10:23.511Z,0.20
2018-08-09T01:12:52.602Z,0.20
2018-08-09T01:15:21.521Z,0.30
2018-08-09T01:17:50.587Z,0.30
2018-08-09T01:20:20.691Z,0.20
2018-08-09T01:22:49.837Z,0.40
2018-08-09T01:25:18.795Z,0.30
2018-08-09T01:27:47.846Z,0.33
2018-08-09T01:30:17.038Z,0.33
2018-08-09T01:32:46.009Z,0.40
2018-08-09T01:35:14.956Z,0.40
2018-08-09T01:37:43.963Z,0.40
2018-08-09T01:40:12.950Z,0.30
2018-08-09T01:42:53.348Z,0.30
2018-08-09T01:45:22.365Z,0.30
2018-08-09T01:47:51.384Z,0.40
2018-08-09T01:50:20.418Z,0.30
2018-08-09T01:52:49.451Z,0.37
2018-08-09T01:55:18.523Z,0.30
2018-08-09T01:57:47.457Z,0.30
2018-08-09T02:00:16.406Z,0.30
2018-08-09T02:02:45.396Z,0.30
2018-08-09T02:05:15.013Z,0.30
2018-08-09T02:07:44.067Z,0.20
2018-08-09T02:10:13.088Z,0.20
2018-08-09T02:12:42.056Z,0.30
2018-08-09T02:15:10.958Z,0.30
2018-08-09T02:17:40.292Z,0.20
2018-08-09T02:20:09.203Z,0.20
2018-08-09T02:22:38.095Z,0.40
2018-08-09T02:25:07.004Z,0.40
2018-08-09T02:27:35.941Z,0.30
2018-08-09T02:30:05.803Z,0.30
2018-08-09T02:32:34.687Z,0.30
2018-08-09T02:35:03.614Z,0.40
2018-08-09T02:37:32.532Z,0.20
2018-08-09T02:40:01.459Z,0.30
2018-08-09T02:42:30.553Z,0.40
2018-08-09T02:44:59.463Z,0.20
2018-08-09T02:47:28.363Z,0.13
2018-08-09T02:49:57.294Z,0.40
2018-08-09T02:52:26.307Z,0.40
2018-08-09T02:54:55.311Z,0.20
2018-08-09T02:57:24.320Z,0.40
2018-08-09T02:59:53.347Z,0.20
2018-08-09T03:02:22.227Z,0.33
2018-08-09T03:04:51.151Z,0.30
2018-08-09T03:07:20.105Z,0.20
2018-08-09T03:09:49.007Z,0.30
2018-08-09T03:12:17.955Z,0.23
2018-08-09T03:14:47.127Z,0.20
2018-08-09T03:17:16.121Z,0.20
2018-08-09T03:19:44.955Z,0.30
2018-08-09T03:22:13.896Z,0.20
2018-08-09T03:24:42.859Z,0.40
2018-08-09T03:27:11.811Z,0.30
2018-08-09T03:29:40.744Z,0.40
2018-08-09T03:32:09.692Z,0.20
2018-08-09T03:34:38.628Z,0.20
2018-08-09T03:37:08.632Z,0.30
2018-08-09T03:39:37.563Z,0.30
2018-08-09T03:42:06.527Z,0.30
2018-08-09T03:44:35.514Z,0.20
2018-08-09T03:47:04.488Z,0.20
2018-08-09T03:49:33.435Z,0.20
2018-08-09T03:52:02.408Z,0.30
2018-08-09T03:54:31.383Z,0.30
2018-08-09T03:57:00.339Z,0.30
2018-08-09T03:59:29.294Z,0.20
2018-08-09T04:01:58.202Z,0.30
2018-08-09T04:04:27.190Z,0.37
2018-08-09T04:06:56.125Z,0.20
2018-08-09T04:09:25.068Z,0.27
2018-08-09T04:11:54.079Z,0.20
2018-08-09T04:14:23.104Z,0.47
2018-08-09T04:16:52.018Z,0.30
2018-08-09T04:19:20.967Z,0.30
2018-08-09T04:21:49.939Z,0.20
2018-08-09T04:24:18.854Z,0.20
2018-08-09T04:26:47.784Z,0.30
2018-08-09T04:29:16.684Z,0.40
2018-08-09T04:31:45.601Z,0.30
2018-08-09T04:34:14.540Z,0.30
2018-08-09T04:36:43.463Z,0.23
2018-08-09T04:39:12.462Z,0.20
2018-08-09T04:41:41.432Z,0.40
2018-08-09T04:44:10.339Z,0.30
2018-08-09T04:46:39.270Z,0.40
2018-08-09T04:49:08.257Z,0.20
2018-08-09T04:51:37.185Z,0.30
2018-08-09T04:54:06.128Z,0.20
2018-08-09T04:56:35.048Z,0.40
2018-08-09T04:59:04.767Z,0.20
2018-08-09T05:01:33.662Z,0.30
2018-08-09T05:04:02.581Z,0.30
2018-08-09T05:06:31.544Z,0.30
2018-08-09T05:09:00.475Z,0.40
2018-08-09T05:11:29.401Z,0.30
2018-08-09T05:13:58.323Z,0.30
2018-08-09T05:16:27.264Z,0.37
2018-08-09T05:18:56.178Z,0.20
2018-08-09T05:21:25.082Z,0.30
2018-08-09T05:23:54.032Z,0.27
2018-08-09T05:26:22.966Z,0.30
2018-08-09T05:28:51.884Z,0.30
2018-08-09T05:31:20.963Z,0.30
2018-08-09T05:33:49.912Z,0.30
2018-08-09T05:36:18.864Z,0.20
2018-08-09T05:38:47.845Z,0.30
2018-08-09T05:41:16.875Z,0.30
2018-08-09T05:43:45.862Z,0.30
2018-08-09T05:46:14.824Z,0.30
2018-08-09T05:48:43.790Z,0.33
2018-08-09T05:51:12.755Z,0.40
2018-08-09T05:53:41.722Z,0.37
2018-08-09T05:56:10.706Z,0.30
2018-08-09T05:58:39.703Z,0.37
2018-08-09T06:01:08.645Z,0.33
2018-08-09T06:03:37.640Z,0.30
2018-08-09T06:06:06.571Z,0.40
2018-08-09T06:08:35.550Z,0.40
2018-08-09T06:11:04.521Z,0.40
2018-08-09T06:13:33.522Z,0.43
2018-08-09T06:16:02.377Z,0.40
2018-08-09T06:18:31.436Z,0.40
2018-08-09T06:21:00.397Z,0.33
2018-08-09T06:23:29.320Z,0.40
2018-08-09T06:25:58.263Z,0.47
2018-08-09T06:28:27.205Z,0.30
2018-08-09T06:30:56.246Z,0.33
2018-08-09T06:33:25.234Z,0.30
2018-08-09T06:35:54.135Z,0.40
2018-08-09T06:38:23.047Z,0.50
2018-08-09T06:40:52.105Z,0.47
2018-08-09T06:43:21.116Z,0.40
2018-08-09T06:45:50.028Z,0.60
2018-08-09T06:48:19.022Z,0.40
2018-08-09T06:50:47.993Z,0.60
2018-08-09T06:53:16.925Z,0.50
2018-08-09T06:55:45.867Z,0.40
2018-08-09T06:58:14.792Z,0.60
2018-08-09T07:00:43.700Z,0.45
2018-08-09T07:03:12.652Z,0.45
2018-08-09T07:05:41.643Z,0.50
2018-08-09T07:08:10.518Z,0.60
2018-08-09T07:10:39.458Z,0.60
2018-08-09T07:13:08.373Z,0.50
2018-08-09T07:15:37.361Z,0.50
2018-08-09T07:18:06.344Z,0.60
2018-08-09T07:20:35.273Z,0.50
2018-08-09T07:23:04.215Z,0.60
2018-08-09T07:25:33.147Z,0.60
2018-08-09T07:28:02.166Z,0.60
2018-08-09T07:30:31.125Z,0.70
2018-08-09T07:33:00.089Z,0.60
2018-08-09T07:35:29.046Z,0.68
2018-08-09T07:37:58.018Z,0.60
2018-08-09T07:40:26.943Z,0.60
2018-08-09T07:42:55.868Z,0.70
2018-08-09T07:45:24.904Z,0.50
2018-08-09T07:47:53.867Z,0.57
2018-08-09T07:50:22.803Z,0.60
2018-08-09T07:52:51.728Z,0.60
2018-08-09T07:55:20.674Z,0.60
2018-08-09T07:57:49.628Z,0.50
2018-08-09T08:00:18.571Z,0.68
2018-08-09T08:02:47.506Z,0.70
2018-08-09T08:05:16.455Z,0.50
2018-08-09T08:07:45.451Z,0.60
2018-08-09T08:10:14.379Z,0.70
2018-08-09T08:12:43.352Z,0.70
2018-08-09T08:15:12.286Z,0.60
2018-08-09T08:17:41.223Z,0.60
2018-08-09T08:20:10.526Z,0.60
2018-08-09T08:22:39.451Z,0.70
2018-08-09T08:25:08.624Z,0.70
2018-08-09T08:27:37.752Z,0.70
2018-08-09T08:30:10.159Z,0.60
2018-08-09T08:32:39.684Z,0.60
2018-08-09T08:35:08.695Z,0.60
2018-08-09T08:37:38.103Z,0.60
2018-08-09T08:40:07.323Z,0.68
2018-08-09T08:42:36.697Z,0.80
2018-08-09T08:45:08.136Z,0.78
2018-08-09T08:47:37.115Z,0.70
2018-08-09T08:50:07.205Z,0.60
2018-08-09T08:52:36.312Z,0.60
2018-08-09T08:55:07.551Z,0.60
2018-08-09T08:57:36.496Z,0.60
2018-08-09T09:00:06.845Z,0.60
2018-08-09T09:02:35.941Z,0.60
2018-08-09T09:05:06.287Z,0.70
2018-08-09T09:07:35.292Z,0.60
2018-08-09T09:10:04.662Z,0.60
2018-08-09T09:12:33.630Z,0.60
2018-08-09T09:15:02.572Z,0.80
2018-08-09T09:17:31.504Z,0.80
2018-08-09T09:20:00.469Z,0.80
2018-08-09T09:22:29.463Z,0.80
2018-08-09T09:24:58.396Z,0.70
2018-08-09T09:27:27.323Z,0.80
2018-08-09T09:29:56.347Z,0.72
2018-08-09T09:32:25.282Z,0.80
2018-08-09T09:34:54.235Z,0.80
2018-08-09T09:37:23.070Z,0.70
2018-08-09T09:39:52.001Z,0.80
2018-08-09T09:42:20.905Z,0.70
2018-08-09T09:44:49.810Z,0.80
2018-08-09T09:47:18.769Z,0.80
2018-08-09T09:49:47.687Z,0.82
2018-08-09T09:52:16.613Z,0.80
2018-08-09T09:54:45.609Z,0.70
2018-08-09T09:57:14.570Z,0.70
2018-08-09T09:59:43.574Z,0.70
2018-08-09T10:02:12.499Z,0.80
2018-08-09T10:04:41.428Z,0.88
2018-08-09T10:07:10.419Z,0.90
2018-08-09T10:09:39.323Z,0.80
2018-08-09T10:12:08.326Z,0.70
2018-08-09T10:14:37.288Z,0.80
2018-08-09T10:17:06.200Z,0.72
2018-08-09T10:19:35.099Z,0.90
2018-08-09T10:22:04.029Z,0.90
2018-08-09T10:24:32.928Z,0.80
2018-08-09T10:27:01.869Z,0.90
2018-08-09T10:29:30.806Z,0.82
2018-08-09T10:31:59.828Z,0.80
2018-08-09T10:34:28.743Z,0.70
2018-08-09T10:36:57.653Z,0.80
2018-08-09T10:39:26.588Z,0.82
2018-08-09T10:41:55.571Z,0.70
2018-08-09T10:44:24.520Z,0.80
2018-08-09T10:46:53.427Z,0.80
2018-08-09T10:49:22.410Z,0.90
2018-08-09T10:51:51.334Z,0.68
2018-08-09T10:54:20.315Z,0.95
2018-08-09T10:56:49.230Z,0.88
2018-08-09T10:59:18.143Z,0.72
2018-08-09T11:01:47.104Z,0.80
2018-08-09T11:04:16.110Z,0.80
2018-08-09T11:06:45.020Z,0.90
2018-08-09T11:09:13.944Z,0.88
2018-08-09T11:11:46.717Z,0.80
2018-08-09T11:14:15.633Z,0.70
2018-08-09T11:16:44.612Z,0.70
2018-08-09T11:19:13.548Z,0.70
2018-08-09T11:21:42.449Z,0.80
2018-08-09T11:24:11.353Z,0.80
2018-08-09T11:26:40.305Z,0.65
2018-08-09T11:29:09.304Z,0.80
2018-08-09T11:31:38.235Z,0.80
2018-08-09T11:34:07.163Z,0.90
2018-08-09T11:36:36.055Z,0.85
2018-08-09T11:39:08.407Z,0.80
2018-08-09T11:41:37.327Z,0.80
2018-08-09T11:44:06.285Z,0.80
2018-08-09T11:46:35.250Z,0.80
2018-08-09T11:49:04.249Z,0.90
2018-08-09T11:51:33.190Z,0.90
2018-08-09T11:54:02.144Z,0.80
2018-08-09T11:56:31.249Z,0.80
2018-08-09T11:59:00.215Z,0.82
2018-08-09T12:01:29.239Z,0.78
2018-08-09T12:03:58.270Z,0.78
2018-08-09T12:06:27.289Z,0.90
2018-08-09T12:08:56.291Z,0.90
2018-08-09T12:11:25.395Z,0.68
2018-08-09T12:13:54.328Z,0.80
2018-08-09T12:16:23.349Z,0.70
2018-08-09T12:18:52.295Z,0.70
2018-08-09T12:21:21.367Z,0.60
2018-08-09T12:23:50.317Z,0.70
2018-08-09T12:26:19.321Z,0.72
2018-08-09T12:28:48.260Z,0.80
2018-08-09T12:31:17.256Z,0.70
2018-08-09T12:33:46.206Z,0.90
2018-08-09T12:36:15.211Z,0.90
2018-08-09T12:38:44.264Z,0.90
2018-08-09T12:41:13.223Z,0.90
2018-08-09T12:43:42.123Z,0.80
2018-08-09T12:46:11.054Z,0.80
2018-08-09T12:48:40.004Z,0.90
2018-08-09T12:51:09.060Z,0.90
2018-08-09T12:53:37.999Z,0.80
2018-08-09T12:56:06.980Z,0.70
2018-08-09T12:58:36.286Z,0.80
2018-08-09T13:01:05.332Z,0.60
2018-08-09T13:03:34.261Z,0.70
2018-08-09T13:06:03.494Z,0.80
2018-08-09T13:08:32.434Z,0.72
2018-08-09T13:11:01.440Z,0.90
2018-08-09T13:13:30.296Z,0.80
2018-08-09T13:15:59.239Z,0.90
2018-08-09T13:18:28.181Z,0.90
2018-08-09T13:20:57.248Z,1.00
2018-08-09T13:23:26.267Z,0.80
2018-08-09T13:25:55.191Z,0.70
2018-08-09T13:28:24.245Z,0.75
2018-08-09T13:30:53.353Z,0.70
2018-08-09T13:33:22.325Z,0.70
2018-08-09T13:35:51.283Z,0.80
2018-08-09T13:38:20.245Z,0.78
2018-08-09T13:40:49.268Z,0.80
2018-08-09T13:43:18.267Z,0.80
2018-08-09T13:45:47.259Z,0.70
2018-08-09T13:48:16.192Z,0.80
2018-08-09T13:50:45.110Z,0.72
2018-08-09T13:53:14.185Z,0.60
2018-08-09T13:55:43.303Z,0.78
2018-08-09T13:58:12.296Z,0.70
2018-08-09T14:00:41.309Z,0.72
2018-08-09T14:03:10.262Z,0.85
2018-08-09T14:05:39.276Z,0.60
2018-08-09T14:08:08.272Z,0.80
2018-08-09T14:10:37.333Z,0.80
2018-08-09T14:13:06.238Z,0.80
2018-08-09T14:15:35.180Z,0.70
2018-08-09T14:18:04.448Z,0.80
2018-08-09T14:20:33.374Z,0.80
2018-08-09T14:23:02.320Z,0.70
2018-08-09T14:25:31.297Z,0.80
2018-08-09T14:28:00.201Z,0.70
2018-08-09T14:30:29.215Z,0.80
2018-08-09T14:32:58.441Z,0.62
2018-08-09T14:35:27.335Z,0.70
2018-08-09T14:37:56.361Z,0.75
2018-08-09T14:40:25.337Z,0.60
2018-08-09T14:42:54.421Z,0.60
2018-08-09T14:45:23.451Z,0.70
2018-08-09T14:47:52.418Z,0.68
2018-08-09T14:50:21.492Z,0.60
2018-08-09T14:52:50.420Z,0.70
2018-08-09T14:55:19.374Z,0.70
2018-08-09T14:57:48.344Z,0.70
2018-08-09T15:00:18.866Z,0.60
2018-08-09T15:02:48.167Z,0.78
2018-08-09T15:05:17.588Z,0.70
2018-08-09T15:07:46.521Z,0.70
2018-08-09T15:10:16.263Z,0.78
2018-08-09T15:12:45.204Z,0.72
2018-08-09T15:15:14.159Z,0.90
2018-08-09T15:17:43.155Z,0.70
2018-08-09T15:20:13.356Z,0.80
2018-08-09T15:22:42.441Z,0.70
2018-08-09T15:25:11.976Z,0.78
2018-08-09T15:27:40.960Z,0.72
2018-08-09T15:30:13.454Z,0.70
2018-08-09T15:32:42.474Z,0.70
2018-08-09T15:35:11.516Z,0.57
2018-08-09T15:37:40.479Z,0.80
2018-08-09T15:40:10.535Z,0.60
2018-08-09T15:42:39.443Z,0.60
2018-08-09T15:45:11.080Z,0.70
2018-08-09T15:47:40.600Z,0.80
2018-08-09T15:50:13.359Z,0.80
2018-08-09T15:52:42.796Z,0.65
2018-08-09T15:55:11.992Z,0.72
2018-08-09T15:57:40.923Z,0.70
2018-08-09T16:00:13.154Z,0.70
2018-08-09T16:02:42.082Z,0.70
2018-08-09T16:05:10.996Z,0.72
2018-08-09T16:07:40.012Z,0.70
2018-08-09T16:10:12.218Z,0.80
2018-08-09T16:12:41.404Z,0.68
2018-08-09T16:15:13.778Z,0.60
2018-08-09T16:17:43.160Z,0.65
2018-08-09T16:23:12.004Z,0.60
2018-08-09T16:25:41.038Z,0.70
2018-08-09T16:28:09.949Z,0.70
2018-08-09T16:30:38.899Z,0.60
2018-08-09T16:33:07.798Z,0.60
2018-08-09T16:35:36.739Z,0.60
2018-08-09T16:38:05.657Z,0.60
2018-08-09T16:40:34.560Z,0.50
2018-08-09T16:43:03.515Z,0.70
2018-08-09T16:45:32.504Z,0.60
2018-08-09T16:48:01.453Z,0.60
2018-08-09T16:50:30.345Z,0.60
2018-08-09T16:52:59.329Z,0.70
2018-08-09T16:55:28.770Z,0.65
2018-08-09T16:57:57.684Z,0.50
2018-08-09T17:00:26.698Z,0.65
2018-08-09T17:02:55.929Z,0.60
2018-08-09T17:05:26.068Z,0.50
2018-08-09T17:07:55.020Z,0.60
2018-08-09T17:10:24.859Z,0.60
2018-08-09T17:12:53.786Z,0.53
2018-08-09T17:15:24.603Z,0.53
2018-08-09T17:17:54.128Z,0.50
2018-08-09T17:20:25.559Z,0.70
2018-08-09T17:22:54.487Z,0.60
2018-08-09T17:25:23.470Z,0.60
2018-08-09T17:27:52.551Z,0.50
2018-08-09T17:30:23.334Z,0.50
2018-08-09T17:32:52.208Z,0.50
2018-08-09T17:35:21.467Z,0.50
2018-08-09T17:37:50.539Z,0.50
2018-08-09T17:40:24.464Z,0.50
2018-08-09T17:42:54.308Z,0.50
2018-08-09T17:45:26.537Z,0.60
2018-08-09T17:47:55.483Z,0.60
2018-08-09T17:50:24.417Z,0.53
2018-08-09T17:52:53.883Z,0.40
2018-08-09T17:55:22.905Z,0.60
2018-08-09T17:57:51.900Z,0.60
2018-08-09T18:00:25.153Z,0.60
2018-08-09T18:02:54.542Z,0.55
2018-08-09T18:05:23.480Z,0.50
2018-08-09T18:07:53.106Z,0.60
2018-08-09T18:10:25.283Z,0.57
2018-08-09T18:12:54.265Z,0.50
2018-08-09T18:15:24.304Z,0.50
2018-08-09T18:17:53.370Z,0.60
2018-08-09T18:20:24.350Z,0.70
2018-08-09T18:22:53.332Z,0.70
2018-08-09T18:25:26.887Z,0.33
2018-08-09T18:27:55.909Z,0.57
2018-08-09T18:30:24.895Z,0.70
2018-08-09T18:32:53.991Z,0.50
2018-08-09T18:35:22.800Z,0.50
2018-08-09T18:37:51.785Z,0.37
2018-08-09T18:40:24.084Z,0.60
2018-08-09T18:42:53.048Z,0.60
2018-08-09T18:45:22.273Z,0.40
2018-08-09T18:47:51.276Z,0.47
2018-08-09T18:50:27.987Z,0.50
2018-08-09T18:52:57.158Z,0.40
2018-08-09T18:55:26.104Z,0.40
2018-08-09T18:57:55.029Z,0.50
2018-08-09T19:00:25.910Z,0.50
2018-08-09T19:02:55.047Z,0.40
2018-08-09T19:05:24.165Z,0.40
2018-08-09T19:07:53.180Z,0.50
2018-08-09T19:10:24.527Z,0.42
2018-08-09T19:12:53.645Z,0.60
2018-08-09T19:15:22.603Z,0.35
2018-08-09T19:17:51.739Z,0.50
2018-08-09T19:20:22.596Z,0.50
2018-08-09T19:22:51.875Z,0.50
2018-08-09T19:25:20.832Z,0.40
2018-08-09T19:27:49.797Z,0.50
2018-08-09T19:30:20.326Z,0.40
2018-08-09T19:32:49.441Z,0.30
2018-08-09T19:35:19.209Z,0.40
2018-08-09T19:37:48.140Z,0.50
2018-08-09T19:40:20.348Z,0.43
2018-08-09T19:42:49.371Z,0.40
2018-08-09T19:45:18.914Z,0.50
2018-08-09T19:47:47.859Z,0.50
2018-08-09T19:50:18.387Z,0.40
2018-08-09T19:52:47.320Z,0.40
2018-08-09T19:55:17.715Z,0.50
2018-08-09T19:57:47.833Z,0.50
2018-08-09T20:00:24.814Z,0.40
2018-08-09T20:02:53.745Z,0.33
2018-08-09T20:05:23.378Z,0.50
2018-08-09T20:07:52.472Z,0.50
2018-08-09T20:10:21.402Z,0.40
2018-08-09T20:12:50.379Z,0.60
2018-08-09T20:15:20.453Z,0.40
2018-08-09T20:17:49.416Z,0.47
2018-08-09T20:20:19.972Z,0.50
2018-08-09T20:22:48.921Z,0.40
2018-08-09T20:25:17.935Z,0.50
2018-08-09T20:27:47.409Z,0.50
2018-08-09T20:30:17.168Z,0.50
2018-08-09T20:32:46.667Z,0.50
2018-08-09T20:35:19.209Z,0.50
2018-08-09T20:37:48.398Z,0.40
2018-08-09T20:40:17.916Z,0.50
2018-08-09T20:42:47.847Z,0.50
2018-08-09T20:45:18.257Z,0.37
2018-08-09T20:47:47.187Z,0.50
2018-08-09T20:50:18.195Z,0.40
2018-08-09T20:52:47.790Z,0.50
2018-08-09T20:55:17.007Z,0.43
2018-08-09T20:57:46.800Z,0.60
2018-08-09T21:00:19.954Z,0.40
2018-08-09T21:02:50.242Z,0.60
2018-08-09T21:05:21.574Z,0.40
2018-08-09T21:07:51.480Z,0.30
2018-08-09T21:10:20.771Z,0.43
2018-08-09T21:12:49.697Z,0.43
2018-08-09T21:15:19.446Z,0.50
2018-08-09T21:17:48.372Z,0.50
2018-08-09T21:20:17.335Z,0.30
2018-08-09T21:22:47.376Z,0.37
2018-08-09T21:25:16.423Z,0.40
2018-08-09T21:27:45.871Z,0.60
2018-08-09T21:30:18.680Z,0.53
2018-08-09T21:32:48.192Z,0.50
2018-08-09T21:35:17.148Z,0.50
2018-08-09T21:37:46.403Z,0.40
2018-08-09T21:40:15.755Z,0.40
2018-08-09T21:42:44.748Z,0.40
2018-08-09T21:45:18.971Z,0.37
2018-08-09T21:47:47.956Z,0.50
2018-08-09T21:50:18.217Z,0.60
2018-08-09T21:52:47.283Z,0.60
2018-08-09T21:55:16.256Z,0.40
2018-08-09T21:57:46.010Z,0.40
2018-08-09T22:00:55.131Z,0.27
2018-08-09T22:03:27.358Z,0.30
2018-08-09T22:06:01.564Z,0.40
2018-08-09T22:08:35.966Z,0.40
2018-08-09T22:11:10.699Z,0.40
2018-08-09T22:13:45.055Z,0.40
2018-08-09T22:16:19.400Z,0.40
2018-08-09T22:18:53.708Z,0.50
2018-08-09T22:21:28.040Z,0.30
2018-08-09T22:23:57.004Z,0.30
2018-08-09T22:26:26.007Z,0.40
2018-08-09T22:28:54.940Z,0.50
2018-08-09T22:31:23.885Z,0.40
2018-08-09T22:33:52.811Z,0.33
2018-08-09T22:36:21.775Z,0.40
2018-08-09T22:38:50.649Z,0.30
2018-08-09T22:41:19.661Z,0.30
2018-08-09T22:43:48.615Z,0.40
2018-08-09T22:46:17.566Z,0.40
2018-08-09T22:48:46.487Z,0.30
2018-08-09T22:51:15.372Z,0.30
2018-08-09T22:53:44.316Z,0.40
2018-08-09T22:56:13.287Z,0.40
2018-08-09T22:58:42.203Z,0.50
2018-08-09T23:01:11.211Z,0.40
2018-08-09T23:03:40.132Z,0.20
2018-08-09T23:06:09.008Z,0.40
2018-08-09T23:08:37.918Z,0.40
2018-08-09T23:11:07.352Z,0.40
2018-08-09T23:13:36.302Z,0.50
2018-08-09T23:16:05.874Z,0.50
2018-08-09T23:18:34.802Z,0.30
2018-08-09T23:21:03.727Z,0.50
2018-08-09T23:23:32.677Z,0.40
2018-08-09T23:26:01.639Z,0.40
2018-08-09T23:28:30.666Z,0.50
2018-08-09T23:30:59.693Z,0.20
2018-08-09T23:33:28.662Z,0.40
2018-08-09T23:35:57.584Z,0.30
2018-08-09T23:38:27.496Z,0.50
2018-08-09T23:40:56.458Z,0.40
2018-08-09T23:46:00.614Z,0.30
2018-08-09T23:48:29.544Z,0.33
2018-08-09T23:50:58.485Z,0.40
2018-08-09T23:53:27.456Z,0.40
2018-08-09T23:55:56.412Z,0.40
2018-08-09T23:58:25.384Z,0.50
